sensor_id;sensor_type;location;lat;lon;timestamp;temperature;humidity
16674;DHT22;8450;52.654;10.326;2022-11-20T07:52:37;-1.60;99.90
16674;DHT22;8450;52.654;10.326;2022-11-20T07:55:03;-1.70;99.90
16674;DHT22;8450;52.654;10.326;2022-11-20T07:57:29;-1.70;99.90
16674;DHT22;8450;52.654;10.326;2022-11-20T07:59:54;-1.70;99.90
16674;DHT22;8450;52.654;10.326;2022-11-20T08:02:20;-1.60;99.90
16674;DHT22;8450;52.654;10.326;2022-11-20T08:04:45;-1.60;99.90
16674;DHT22;8450;52.654;10.326;2022-11-20T08:07:11;-1.60;99.90
16674;DHT22;8450;52.654;10.326;2022-11-20T08:09:37;-1.60;99.90
16674;DHT22;8450;52.654;10.326;2022-11-20T08:12:02;-1.60;99.90
16674;DHT22;8450;52.654;10.326;2022-11-20T08:14:46;-1.60;99.90
16674;DHT22;8450;52.654;10.326;2022-11-20T08:17:12;-1.60;99.90
16674;DHT22;8450;52.654;10.326;2022-11-20T08:19:38;-1.60;99.90
16674;DHT22;8450;52.654;10.326;2022-11-20T08:22:03;-1.60;99.90
16674;DHT22;8450;52.654;10.326;2022-11-20T08:24:29;-1.60;99.90
16674;DHT22;8450;52.654;10.326;2022-11-20T08:26:57;-1.60;99.90
16674;DHT22;8450;52.654;10.326;2022-11-20T08:29:24;-1.60;99.90
16674;DHT22;8450;52.654;10.326;2022-11-20T08:31:49;-1.50;99.90
16674;DHT22;8450;52.654;10.326;2022-11-20T08:34:15;-1.50;99.90
16674;DHT22;8450;52.654;10.326;2022-11-20T08:36:40;-1.50;99.90
16674;DHT22;8450;52.654;10.326;2022-11-20T08:39:06;-1.50;99.90
16674;DHT22;8450;52.654;10.326;2022-11-20T08:41:31;-1.50;99.90
16674;DHT22;8450;52.654;10.326;2022-11-20T08:44:06;-1.50;99.90
16674;DHT22;8450;52.654;10.326;2022-11-20T08:46:39;-1.50;99.90
16674;DHT22;8450;52.654;10.326;2022-11-20T08:49:08;-1.50;99.90
16674;DHT22;8450;52.654;10.326;2022-11-20T08:51:35;-1.50;99.90
16674;DHT22;8450;52.654;10.326;2022-11-20T08:54:01;-1.50;99.90
16674;DHT22;8450;52.654;10.326;2022-11-20T08:56:27;-1.40;99.90
16674;DHT22;8450;52.654;10.326;2022-11-20T08:58:53;-1.40;99.90
16674;DHT22;8450;52.654;10.326;2022-11-20T09:01:19;-1.40;99.90
16674;DHT22;8450;52.654;10.326;2022-11-20T09:03:45;-1.40;99.90
16674;DHT22;8450;52.654;10.326;2022-11-20T09:06:12;-1.40;99.90
16674;DHT22;8450;52.654;10.326;2022-11-20T09:08:37;-1.40;99.90
16674;DHT22;8450;52.654;10.326;2022-11-20T09:11:03;-1.40;99.90
16674;DHT22;8450;52.654;10.326;2022-11-20T09:13:30;-1.40;99.90
16674;DHT22;8450;52.654;10.326;2022-11-20T09:15:59;-1.30;99.90
16674;DHT22;8450;52.654;10.326;2022-11-20T09:18:25;-1.30;99.90
16674;DHT22;8450;52.654;10.326;2022-11-20T09:20:51;-1.30;99.90
16674;DHT22;8450;52.654;10.326;2022-11-20T09:23:17;-1.30;99.90
16674;DHT22;8450;52.654;10.326;2022-11-20T09:25:43;-1.30;99.90
16674;DHT22;8450;52.654;10.326;2022-11-20T09:28:09;-1.30;99.90
16674;DHT22;8450;52.654;10.326;2022-11-20T09:30:35;-1.30;99.90
16674;DHT22;8450;52.654;10.326;2022-11-20T09:33:00;-1.30;99.90
16674;DHT22;8450;52.654;10.326;2022-11-20T09:35:26;-1.20;99.90
16674;DHT22;8450;52.654;10.326;2022-11-20T09:37:52;-1.20;99.90
16674;DHT22;8450;52.654;10.326;2022-11-20T09:40:22;-1.20;99.90
16674;DHT22;8450;52.654;10.326;2022-11-20T09:48:32;-1.10;99.90
16674;DHT22;8450;52.654;10.326;2022-11-20T09:51:10;-1.10;99.90
16674;DHT22;8450;52.654;10.326;2022-11-20T09:53:52;-1.10;99.90
16674;DHT22;8450;52.654;10.326;2022-11-20T09:56:21;-1.10;99.90
16674;DHT22;8450;52.654;10.326;2022-11-20T09:58:50;-1.10;99.90
16674;DHT22;8450;52.654;10.326;2022-11-20T10:01:22;-1.00;99.90
16674;DHT22;8450;52.654;10.326;2022-11-20T10:04:10;-1.00;99.90
16674;DHT22;8450;52.654;10.326;2022-11-20T10:06:48;-1.00;99.90
16674;DHT22;8450;52.654;10.326;2022-11-20T10:09:30;-1.00;99.90
16674;DHT22;8450;52.654;10.326;2022-11-20T10:15:20;-0.90;99.90
16674;DHT22;8450;52.654;10.326;2022-11-20T10:20:33;-0.90;99.90
16674;DHT22;8450;52.654;10.326;2022-11-20T10:23:12;-0.90;99.90
16674;DHT22;8450;52.654;10.326;2022-11-20T10:26:04;-0.80;99.90
16674;DHT22;8450;52.654;10.326;2022-11-20T10:28:51;-0.80;99.90
16674;DHT22;8450;52.654;10.326;2022-11-20T10:31:35;-0.80;99.90
16674;DHT22;8450;52.654;10.326;2022-11-20T10:34:07;-0.70;99.90
16674;DHT22;8450;52.654;10.326;2022-11-20T10:36:47;-0.70;99.90
16674;DHT22;8450;52.654;10.326;2022-11-20T10:42:37;-0.60;99.90
16674;DHT22;8450;52.654;10.326;2022-11-20T10:45:19;-0.60;99.90
16674;DHT22;8450;52.654;10.326;2022-11-20T10:47:47;-0.50;99.90
16674;DHT22;8450;52.654;10.326;2022-11-20T10:50:18;-0.50;99.90
16674;DHT22;8450;52.654;10.326;2022-11-20T10:53:05;-0.50;99.90
16674;DHT22;8450;52.654;10.326;2022-11-20T10:55:48;-0.50;99.90
16674;DHT22;8450;52.654;10.326;2022-11-20T11:00:50;-0.40;99.90
16674;DHT22;8450;52.654;10.326;2022-11-20T11:03:27;-0.40;99.90
16674;DHT22;8450;52.654;10.326;2022-11-20T11:06:06;-0.40;99.90
16674;DHT22;8450;52.654;10.326;2022-11-20T11:08:37;-0.30;99.90
16674;DHT22;8450;52.654;10.326;2022-11-20T11:13:44;-0.30;99.90
16674;DHT22;8450;52.654;10.326;2022-11-20T11:16:24;-0.30;99.90
16674;DHT22;8450;52.654;10.326;2022-11-20T11:18:50;-0.30;99.90
16674;DHT22;8450;52.654;10.326;2022-11-20T11:21:24;-0.20;99.90
16674;DHT22;8450;52.654;10.326;2022-11-20T11:23:59;-0.20;99.90
16674;DHT22;8450;52.654;10.326;2022-11-20T11:26:25;-0.20;99.90
16674;DHT22;8450;52.654;10.326;2022-11-20T11:28:59;-0.20;99.90
16674;DHT22;8450;52.654;10.326;2022-11-20T11:31:27;-0.20;99.90
16674;DHT22;8450;52.654;10.326;2022-11-20T11:34:07;-0.10;99.90
16674;DHT22;8450;52.654;10.326;2022-11-20T11:36:34;-0.10;99.90
16674;DHT22;8450;52.654;10.326;2022-11-20T11:39:01;-0.10;99.90
16674;DHT22;8450;52.654;10.326;2022-11-20T11:41:32;-0.10;99.90
16674;DHT22;8450;52.654;10.326;2022-11-20T11:44:19;-0.10;99.90
16674;DHT22;8450;52.654;10.326;2022-11-20T11:47:08;-0.10;99.90
16674;DHT22;8450;52.654;10.326;2022-11-20T11:49:35;0.00;99.90
16674;DHT22;8450;52.654;10.326;2022-11-20T11:55:04;0.00;99.90
16674;DHT22;8450;52.654;10.326;2022-11-20T12:02:46;0.10;99.90
16674;DHT22;8450;52.654;10.326;2022-11-20T12:05:27;0.20;99.90
16674;DHT22;8450;52.654;10.326;2022-11-20T12:15:51;0.20;99.90
16674;DHT22;8450;52.654;10.326;2022-11-20T12:18:20;0.30;99.90
16674;DHT22;8450;52.654;10.326;2022-11-20T12:21:08;0.30;99.90
16674;DHT22;8450;52.654;10.326;2022-11-20T12:43:24;0.40;99.90
16674;DHT22;8450;52.654;10.326;2022-11-20T12:51:51;0.40;99.90
16674;DHT22;8450;52.654;10.326;2022-11-20T12:54:43;0.50;99.90
16674;DHT22;8450;52.654;10.326;2022-11-20T13:05:18;0.50;99.90
16674;DHT22;8450;52.654;10.326;2022-11-20T13:07:46;0.40;99.90
16674;DHT22;8450;52.654;10.326;2022-11-20T13:10:23;0.50;99.90
16674;DHT22;8450;52.654;10.326;2022-11-20T13:12:57;0.50;99.90
16674;DHT22;8450;52.654;10.326;2022-11-20T13:18:12;0.50;99.90
16674;DHT22;8450;52.654;10.326;2022-11-20T13:20:43;0.50;99.90
16674;DHT22;8450;52.654;10.326;2022-11-20T13:23:10;0.50;99.90
